createdAt,value
2022-11-12T00:00:05.379Z,79.54
2022-11-12T00:01:45.044Z,79.49
2022-11-12T00:03:08.828Z,79.71
2022-11-12T00:04:30.543Z,79.74
2022-11-12T00:05:53.443Z,79.88
2022-11-12T00:07:15.644Z,79.74
2022-11-12T00:08:51.699Z,80.01
2022-11-12T00:10:17.087Z,79.86
2022-11-12T00:11:39.262Z,80.25
2022-11-12T00:13:01.095Z,80.30
2022-11-12T00:14:23.357Z,80.19
2022-11-12T00:15:47.239Z,80.31
2022-11-12T00:17:09.239Z,80.38
2022-11-12T00:18:31.059Z,80.18
2022-11-12T00:19:54.236Z,80.41
2022-11-12T00:21:16.099Z,80.17
2022-11-12T00:22:38.809Z,80.14
2022-11-12T00:24:03.089Z,80.09
2022-11-12T00:25:25.119Z,80.25
2022-11-12T00:26:46.953Z,80.11
2022-11-12T00:28:10.833Z,80.28
2022-11-12T00:29:32.487Z,80.00
2022-11-12T00:30:54.603Z,80.08
2022-11-12T00:32:16.634Z,80.35
2022-11-12T00:33:43.388Z,80.22
2022-11-12T00:35:08.677Z,80.36
2022-11-12T00:36:32.968Z,80.36
2022-11-12T00:37:56.897Z,80.24
2022-11-12T00:39:19.308Z,80.47
2022-11-12T00:40:42.483Z,80.49
2022-11-12T00:42:04.749Z,80.28
2022-11-12T00:43:26.643Z,80.57
2022-11-12T00:44:50.079Z,80.53
2022-11-12T00:46:12.244Z,80.29
2022-11-12T00:47:34.458Z,80.37
2022-11-12T00:48:56.391Z,80.09
2022-11-12T00:50:18.334Z,80.27
2022-11-12T00:51:40.612Z,80.37
2022-11-12T00:53:02.837Z,80.46
2022-11-12T00:54:27.444Z,80.46
2022-11-12T00:55:49.169Z,80.61
2022-11-12T00:57:11.379Z,80.44
2022-11-12T00:58:35.671Z,80.46
2022-11-12T00:59:57.480Z,80.60
2022-11-12T01:01:19.908Z,80.70
2022-11-12T01:02:47.738Z,80.84
2022-11-12T01:04:12.631Z,80.78
2022-11-12T01:05:34.890Z,80.72
2022-11-12T01:06:56.592Z,80.95
2022-11-12T01:08:18.691Z,80.76
2022-11-12T01:09:42.178Z,80.94
2022-11-12T01:11:14.151Z,80.76
2022-11-12T01:12:36.642Z,80.90
2022-11-12T01:14:01.391Z,80.79
2022-11-12T01:15:23.100Z,80.72
2022-11-12T01:16:44.984Z,80.58
2022-11-12T01:18:07.089Z,80.65
2022-11-12T01:19:29.110Z,80.52
2022-11-12T01:20:52.101Z,80.61
2022-11-12T01:22:14.506Z,80.58
2022-11-12T01:23:38.736Z,80.56
2022-11-12T01:25:00.590Z,80.92
2022-11-12T01:26:25.545Z,81.22
2022-11-12T01:27:47.439Z,80.95
2022-11-12T01:29:09.307Z,81.30
2022-11-12T01:30:30.996Z,81.26
2022-11-12T01:31:54.109Z,81.01
2022-11-12T01:33:15.817Z,80.96
2022-11-12T01:34:37.663Z,81.07
2022-11-12T01:36:00.316Z,81.05
2022-11-12T01:37:22.085Z,81.18
2022-11-12T01:38:45.329Z,81.08
2022-11-12T01:40:08.052Z,81.19
2022-11-12T01:41:32.648Z,81.44
2022-11-12T01:42:54.647Z,81.32
2022-11-12T01:44:22.722Z,81.37
2022-11-12T01:45:50.265Z,81.53
2022-11-12T01:47:29.356Z,81.23
2022-11-12T01:48:58.585Z,81.43
2022-11-12T01:50:25.668Z,81.29
2022-11-12T01:51:51.018Z,81.24
2022-11-12T01:53:16.976Z,81.50
2022-11-12T01:54:40.276Z,81.18
2022-11-12T01:56:05.844Z,81.29
2022-11-12T01:57:34.833Z,81.35
2022-11-12T01:59:04.659Z,81.00
2022-11-12T02:00:26.729Z,81.13
2022-11-12T02:01:49.088Z,81.31
2022-11-12T02:03:17.594Z,81.20
2022-11-12T02:04:40.926Z,81.08
2022-11-12T02:06:09.696Z,81.08
2022-11-12T02:07:32.917Z,81.13
2022-11-12T02:08:55.639Z,81.12
2022-11-12T02:10:17.804Z,81.16
2022-11-12T02:11:39.629Z,80.99
2022-11-12T02:13:21.395Z,81.04
2022-11-12T02:14:42.994Z,81.14
2022-11-12T02:16:09.683Z,80.92
2022-11-12T02:17:31.544Z,80.93
2022-11-12T02:18:54.843Z,80.82
2022-11-12T02:20:16.918Z,80.90
2022-11-12T02:21:38.964Z,80.97
2022-11-12T02:23:01.213Z,81.10
2022-11-12T02:24:22.823Z,80.90
2022-11-12T02:25:44.812Z,80.98
2022-11-12T02:27:07.779Z,81.02
2022-11-12T02:28:33.072Z,81.06
2022-11-12T02:29:54.832Z,80.80
2022-11-12T02:31:16.728Z,81.06
2022-11-12T02:32:40.588Z,81.09
2022-11-12T02:34:02.653Z,81.00
2022-11-12T02:35:24.930Z,80.89
2022-11-12T02:36:46.898Z,80.89
2022-11-12T02:38:09.935Z,80.81
2022-11-12T02:39:32.237Z,81.01
2022-11-12T02:40:55.208Z,80.84
2022-11-12T02:42:17.341Z,80.90
2022-11-12T02:43:40.718Z,81.03
2022-11-12T02:45:02.638Z,80.65
2022-11-12T02:46:24.539Z,80.92
2022-11-12T02:47:46.572Z,80.92
2022-11-12T02:49:08.549Z,81.17
2022-11-12T02:50:30.791Z,80.89
2022-11-12T02:51:52.226Z,81.25
2022-11-12T02:53:14.384Z,81.05
2022-11-12T02:54:36.416Z,80.91
2022-11-12T02:55:58.708Z,81.10
2022-11-12T02:57:23.333Z,81.01
2022-11-12T02:58:45.397Z,81.07
2022-11-12T03:00:11.695Z,80.98
2022-11-12T03:01:33.597Z,80.89
2022-11-12T03:03:04.707Z,80.87
2022-11-12T03:04:26.705Z,80.97
2022-11-12T03:06:02.091Z,80.88
2022-11-12T03:07:23.826Z,80.71
2022-11-12T03:08:45.678Z,80.99
2022-11-12T03:10:08.438Z,81.03
2022-11-12T03:11:30.306Z,80.98
2022-11-12T03:12:52.813Z,81.01
2022-11-12T03:14:15.213Z,80.77
2022-11-12T03:15:40.178Z,80.87
2022-11-12T03:17:04.488Z,80.78
2022-11-12T03:18:26.304Z,80.96
2022-11-12T03:19:48.291Z,80.88
2022-11-12T03:21:10.222Z,80.96
2022-11-12T03:22:32.276Z,80.99
2022-11-12T03:23:54.020Z,81.01
2022-11-12T03:25:16.074Z,80.85
2022-11-12T03:26:37.737Z,80.81
2022-11-12T03:28:02.354Z,80.82
2022-11-12T03:29:24.063Z,80.70
2022-11-12T03:30:46.289Z,80.96
2022-11-12T03:32:08.664Z,80.84
2022-11-12T03:33:30.573Z,80.66
2022-11-12T03:34:55.462Z,80.74
2022-11-12T03:36:17.929Z,81.16
2022-11-12T03:37:39.931Z,80.80
2022-11-12T03:39:02.317Z,80.96
2022-11-12T03:40:24.468Z,80.92
2022-11-12T03:41:46.754Z,80.93
2022-11-12T03:43:09.226Z,80.71
2022-11-12T03:44:31.243Z,80.89
2022-11-12T03:45:53.314Z,80.95
2022-11-12T03:47:17.583Z,80.98
2022-11-12T03:48:39.670Z,80.88
2022-11-12T03:50:02.059Z,80.74
2022-11-12T03:51:23.920Z,80.94
2022-11-12T03:52:50.533Z,80.93
2022-11-12T03:54:13.147Z,80.98
2022-11-12T03:55:35.028Z,81.03
2022-11-12T03:56:56.785Z,81.03
2022-11-12T03:58:18.552Z,80.89
2022-11-12T03:59:40.542Z,81.06
2022-11-12T04:01:02.931Z,81.03
2022-11-12T04:02:27.025Z,80.86
2022-11-12T04:03:49.074Z,80.72
2022-11-12T04:05:31.336Z,80.90
2022-11-12T04:07:12.083Z,80.86
2022-11-12T04:08:37.060Z,80.96
2022-11-12T04:09:59.098Z,80.98
2022-11-12T04:11:21.398Z,81.08
2022-11-12T04:13:01.699Z,80.88
2022-11-12T04:14:23.914Z,80.98
2022-11-12T04:16:05.957Z,80.90
2022-11-12T04:17:46.746Z,80.82
2022-11-12T04:19:32.458Z,80.80
2022-11-12T04:21:14.385Z,80.79
2022-11-12T04:22:36.319Z,80.71
2022-11-12T04:23:58.423Z,80.66
2022-11-12T04:25:43.637Z,80.76
2022-11-12T04:27:06.870Z,80.69
2022-11-12T04:28:29.295Z,80.74
2022-11-12T04:30:13.319Z,80.93
2022-11-12T04:31:35.306Z,80.63
2022-11-12T04:32:58.645Z,81.09
2022-11-12T04:34:29.802Z,80.70
2022-11-12T04:35:51.910Z,80.97
2022-11-12T04:37:18.758Z,80.97
2022-11-12T04:38:45.213Z,81.17
2022-11-12T04:40:27.862Z,81.10
2022-11-12T04:42:07.974Z,81.13
2022-11-12T04:43:48.520Z,81.22
2022-11-12T04:45:11.193Z,81.36
2022-11-12T04:46:32.909Z,81.39
2022-11-12T04:47:54.826Z,81.40
2022-11-12T04:49:16.909Z,81.32
2022-11-12T04:50:40.052Z,81.29
2022-11-12T04:52:07.975Z,81.49
2022-11-12T04:53:31.050Z,81.51
2022-11-12T04:54:53.160Z,81.51
2022-11-12T04:56:15.254Z,81.30
2022-11-12T04:57:38.512Z,81.49
2022-11-12T04:59:00.450Z,81.60
2022-11-12T05:00:22.359Z,81.53
2022-11-12T05:01:44.554Z,81.61
2022-11-12T05:03:06.379Z,81.34
2022-11-12T05:04:32.129Z,81.56
2022-11-12T05:05:53.959Z,81.33
2022-11-12T05:07:16.547Z,81.43
2022-11-12T05:08:38.521Z,81.37
2022-11-12T05:10:00.209Z,81.69
2022-11-12T05:11:24.677Z,81.60
2022-11-12T05:12:46.374Z,81.38
2022-11-12T05:14:08.368Z,81.38
2022-11-12T05:15:30.441Z,81.54
2022-11-12T05:16:52.763Z,81.46
2022-11-12T05:18:14.794Z,81.46
2022-11-12T05:19:36.452Z,81.42
2022-11-12T05:20:58.433Z,81.46
2022-11-12T05:22:42.620Z,81.80
2022-11-12T05:24:05.099Z,81.68
2022-11-12T05:25:27.129Z,81.71
2022-11-12T05:26:49.455Z,81.52
2022-11-12T05:28:11.760Z,81.66
2022-11-12T05:29:33.469Z,81.38
2022-11-12T05:30:55.258Z,81.81
2022-11-12T05:32:18.638Z,81.78
2022-11-12T05:33:40.597Z,81.73
2022-11-12T05:35:02.854Z,81.56
2022-11-12T05:36:26.163Z,81.74
2022-11-12T05:37:47.886Z,81.62
2022-11-12T05:39:09.965Z,81.56
2022-11-12T05:40:31.796Z,81.66
2022-11-12T05:42:11.857Z,81.48
2022-11-12T05:43:34.333Z,81.71
2022-11-12T05:44:56.211Z,81.69
2022-11-12T05:46:19.412Z,81.59
2022-11-12T05:47:41.562Z,81.61
2022-11-12T05:49:03.844Z,81.54
2022-11-12T05:50:39.581Z,81.45
2022-11-12T05:52:02.532Z,81.57
2022-11-12T05:53:24.496Z,81.40
2022-11-12T05:54:46.030Z,81.42
2022-11-12T05:56:09.877Z,81.40
2022-11-12T05:57:32.045Z,81.35
2022-11-12T05:58:56.183Z,81.45
2022-11-12T06:00:18.164Z,81.48
2022-11-12T06:01:44.323Z,81.43
2022-11-12T06:03:09.939Z,81.66
2022-11-12T06:04:32.082Z,81.58
2022-11-12T06:05:54.197Z,81.46
2022-11-12T06:07:16.107Z,81.31
2022-11-12T06:08:37.983Z,81.39
2022-11-12T06:09:59.795Z,81.39
2022-11-12T06:11:21.842Z,81.60
2022-11-12T06:12:43.610Z,81.65
2022-11-12T06:14:05.953Z,81.43
2022-11-12T06:15:28.110Z,81.65
2022-11-12T06:16:50.172Z,81.56
2022-11-12T06:18:12.375Z,81.56
2022-11-12T06:19:34.330Z,81.81
2022-11-12T06:21:20.198Z,81.70
2022-11-12T06:22:42.397Z,81.58
2022-11-12T06:24:04.518Z,81.44
2022-11-12T06:25:26.858Z,81.68
2022-11-12T06:26:48.677Z,81.67
2022-11-12T06:28:10.873Z,81.67
2022-11-12T06:29:32.713Z,81.80
2022-11-12T06:30:58.088Z,81.89
2022-11-12T06:32:20.295Z,81.88
2022-11-12T06:33:42.320Z,81.83
2022-11-12T06:35:06.143Z,81.78
2022-11-12T06:36:28.718Z,82.00
2022-11-12T06:37:50.491Z,81.92
2022-11-12T06:39:12.552Z,81.67
2022-11-12T06:40:36.729Z,81.68
2022-11-12T06:41:58.594Z,81.86
2022-11-12T06:43:20.781Z,81.68
2022-11-12T06:44:42.197Z,81.93
2022-11-12T06:46:13.003Z,81.73
2022-11-12T06:47:35.063Z,81.55
2022-11-12T06:48:56.899Z,81.74
2022-11-12T06:50:19.137Z,81.85
2022-11-12T06:51:40.917Z,81.70
2022-11-12T06:53:02.994Z,81.62
2022-11-12T06:54:24.807Z,81.69
2022-11-12T06:55:46.894Z,81.73
2022-11-12T06:57:08.804Z,81.87
2022-11-12T06:58:30.941Z,81.69
2022-11-12T06:59:52.807Z,81.88
2022-11-12T07:01:16.814Z,81.76
2022-11-12T07:02:38.477Z,81.66
2022-11-12T07:04:00.513Z,81.71
2022-11-12T07:05:24.284Z,81.63
2022-11-12T07:06:46.232Z,81.85
2022-11-12T07:08:08.438Z,81.75
2022-11-12T07:09:30.513Z,81.68
2022-11-12T07:10:58.570Z,81.74
2022-11-12T07:12:22.033Z,81.64
2022-11-12T07:13:47.184Z,81.58
2022-11-12T07:15:09.773Z,81.56
2022-11-12T07:16:34.607Z,81.58
2022-11-12T07:17:56.763Z,81.20
2022-11-12T07:19:18.795Z,80.95
2022-11-12T07:20:40.703Z,80.77
2022-11-12T07:22:02.526Z,80.60
2022-11-12T07:23:24.812Z,80.30
2022-11-12T07:24:47.629Z,80.09
2022-11-12T07:26:21.360Z,79.37
2022-11-12T07:27:43.338Z,79.10
2022-11-12T07:29:07.503Z,78.80
2022-11-12T07:30:29.281Z,78.86
2022-11-12T07:31:51.858Z,78.46
2022-11-12T07:33:15.014Z,78.14
2022-11-12T07:34:37.169Z,77.91
2022-11-12T07:36:12.797Z,77.41
2022-11-12T07:37:35.641Z,76.57
2022-11-12T07:38:58.702Z,76.24
2022-11-12T07:40:20.904Z,75.82
2022-11-12T07:41:45.170Z,74.31
2022-11-12T07:43:07.422Z,74.61
2022-11-12T07:44:29.286Z,74.18
2022-11-12T07:45:51.390Z,73.36
2022-11-12T07:47:13.260Z,73.04
2022-11-12T07:48:34.872Z,72.61
2022-11-12T07:49:56.636Z,72.56
2022-11-12T07:51:20.180Z,72.13
2022-11-12T07:52:42.165Z,72.24
2022-11-12T07:54:04.544Z,72.23
2022-11-12T07:55:26.872Z,72.40
2022-11-12T07:56:48.630Z,71.43
2022-11-12T07:58:10.497Z,71.20
2022-11-12T07:59:32.528Z,71.26
2022-11-12T08:00:54.498Z,71.06
2022-11-12T08:02:16.440Z,70.26
2022-11-12T08:03:38.519Z,70.44
2022-11-12T08:05:00.717Z,70.15
2022-11-12T08:06:23.177Z,69.48
2022-11-12T08:07:44.977Z,69.11
2022-11-12T08:09:08.700Z,68.15
2022-11-12T08:10:30.676Z,67.06
2022-11-12T08:11:54.430Z,66.48
2022-11-12T08:13:19.613Z,66.51
2022-11-12T08:14:41.614Z,66.19
2022-11-12T08:16:04.036Z,65.85
2022-11-12T08:17:29.116Z,66.33
2022-11-12T08:18:50.925Z,66.11
2022-11-12T08:20:15.769Z,64.83
2022-11-12T08:21:37.716Z,64.31
2022-11-12T08:23:04.255Z,64.94
2022-11-12T08:24:25.814Z,65.10
2022-11-12T08:25:47.889Z,65.13
2022-11-12T08:27:11.012Z,64.98
2022-11-12T08:28:35.099Z,65.10
2022-11-12T08:29:57.865Z,64.94
2022-11-12T08:31:24.088Z,64.24
2022-11-12T08:32:47.774Z,64.70
2022-11-12T08:34:16.060Z,64.29
2022-11-12T08:35:40.268Z,63.00
2022-11-12T08:37:04.547Z,62.18
2022-11-12T08:38:26.494Z,62.21
2022-11-12T08:39:48.444Z,62.02
2022-11-12T08:41:13.160Z,62.04
2022-11-12T08:42:35.195Z,61.46
2022-11-12T08:43:58.262Z,61.50
2022-11-12T08:45:20.375Z,61.53
2022-11-12T08:46:42.711Z,61.60
2022-11-12T08:48:08.418Z,60.22
2022-11-12T08:49:30.586Z,58.18
2022-11-12T08:50:53.378Z,56.19
2022-11-12T08:52:15.534Z,54.95
2022-11-12T08:53:37.532Z,54.64
2022-11-12T08:54:59.415Z,54.08
2022-11-12T08:56:21.684Z,54.64
2022-11-12T08:57:44.757Z,53.73
2022-11-12T08:59:07.616Z,53.94
2022-11-12T09:00:37.309Z,53.33
2022-11-12T09:01:59.155Z,51.82
2022-11-12T09:03:23.703Z,51.58
2022-11-12T09:04:45.691Z,51.02
2022-11-12T09:06:07.651Z,50.41
2022-11-12T09:07:48.835Z,50.53
2022-11-12T09:09:13.274Z,51.00
2022-11-12T09:10:36.626Z,50.66
2022-11-12T09:11:58.345Z,48.84
2022-11-12T09:13:21.065Z,48.85
2022-11-12T09:14:42.938Z,48.64
2022-11-12T09:16:07.343Z,48.92
2022-11-12T09:17:31.150Z,48.99
2022-11-12T09:18:52.794Z,49.69
2022-11-12T09:20:15.934Z,49.54
2022-11-12T09:21:37.910Z,49.29
2022-11-12T09:23:02.023Z,49.12
2022-11-12T09:24:26.488Z,49.31
2022-11-12T09:25:48.418Z,49.27
2022-11-12T09:27:10.490Z,49.60
2022-11-12T09:28:32.631Z,49.50
2022-11-12T09:29:54.795Z,50.28
2022-11-12T09:31:16.812Z,50.30
2022-11-12T09:32:39.027Z,50.98
2022-11-12T09:34:00.711Z,50.23
2022-11-12T09:35:22.979Z,49.34
2022-11-12T09:36:45.086Z,49.30
2022-11-12T09:38:07.446Z,49.57
2022-11-12T09:39:29.327Z,49.73
2022-11-12T09:40:52.308Z,50.83
2022-11-12T09:42:17.909Z,50.84
2022-11-12T09:43:48.998Z,51.27
2022-11-12T09:45:33.709Z,52.04
2022-11-12T09:47:09.834Z,52.55
2022-11-12T09:48:40.559Z,50.42
2022-11-12T09:50:11.405Z,51.28
2022-11-12T09:51:39.504Z,51.30
2022-11-12T09:53:15.436Z,51.32
2022-11-12T09:54:37.549Z,49.63
2022-11-12T09:56:03.417Z,49.67
2022-11-12T09:57:27.694Z,49.62
2022-11-12T09:58:50.144Z,48.84
2022-11-12T10:00:20.394Z,48.55
2022-11-12T10:01:54.908Z,47.91
2022-11-12T10:03:31.946Z,48.01
2022-11-12T10:05:15.538Z,46.75
2022-11-12T10:06:54.644Z,43.74
2022-11-12T10:08:41.874Z,44.98
2022-11-12T10:10:10.422Z,44.08
2022-11-12T10:12:09.862Z,44.63
2022-11-12T10:13:44.006Z,44.56
2022-11-12T10:15:37.047Z,45.24
2022-11-12T10:17:05.959Z,46.08
2022-11-12T10:18:51.908Z,46.57
2022-11-12T10:20:26.274Z,45.19
2022-11-12T10:22:02.643Z,45.24
2022-11-12T10:23:53.843Z,46.03
2022-11-12T10:25:18.293Z,43.65
2022-11-12T10:26:40.839Z,43.52
2022-11-12T10:28:14.432Z,42.06
2022-11-12T10:30:00.654Z,42.15
2022-11-12T10:31:22.655Z,41.89
2022-11-12T10:32:46.475Z,41.54
2022-11-12T10:34:14.618Z,41.40
2022-11-12T10:35:36.923Z,40.49
2022-11-12T10:37:06.273Z,40.62
2022-11-12T10:38:29.943Z,41.66
2022-11-12T10:39:52.602Z,41.14
2022-11-12T10:41:27.973Z,39.39
2022-11-12T10:43:18.815Z,38.83
2022-11-12T10:44:43.343Z,39.23
2022-11-12T10:46:38.129Z,39.84
2022-11-12T10:48:00.769Z,39.57
2022-11-12T10:49:24.615Z,39.96
2022-11-12T10:50:46.485Z,40.25
2022-11-12T10:52:22.172Z,40.57
2022-11-12T10:53:46.190Z,39.69
2022-11-12T10:55:23.199Z,39.68
2022-11-12T10:56:45.254Z,40.13
2022-11-12T10:58:16.843Z,40.18
2022-11-12T10:59:38.620Z,40.14
2022-11-12T11:01:02.441Z,39.68
2022-11-12T11:02:24.635Z,38.33
2022-11-12T11:03:58.054Z,38.10
2022-11-12T11:05:37.851Z,38.41
2022-11-12T11:07:07.582Z,38.14
2022-11-12T11:08:50.413Z,37.88
2022-11-12T11:10:33.335Z,38.11
2022-11-12T11:11:55.064Z,37.86
2022-11-12T11:13:23.805Z,38.32
2022-11-12T11:14:45.604Z,37.68
2022-11-12T11:16:12.625Z,37.57
2022-11-12T11:17:35.233Z,37.55
2022-11-12T11:19:01.318Z,37.72
2022-11-12T11:20:29.482Z,37.91
2022-11-12T11:21:51.721Z,36.76
2022-11-12T11:23:22.381Z,37.50
2022-11-12T11:24:47.207Z,37.86
2022-11-12T11:26:54.180Z,37.73
2022-11-12T11:28:43.106Z,37.72
2022-11-12T11:30:15.615Z,36.61
2022-11-12T11:32:08.409Z,37.30
2022-11-12T11:33:55.537Z,37.55
2022-11-12T11:35:39.458Z,37.06
2022-11-12T11:37:13.091Z,37.93
2022-11-12T11:39:00.109Z,38.06
2022-11-12T11:40:29.874Z,37.68
2022-11-12T11:42:22.448Z,38.55
2022-11-12T11:43:54.689Z,39.11
2022-11-12T11:45:43.365Z,38.05
2022-11-12T11:47:59.459Z,39.60
2022-11-12T11:49:31.974Z,39.17
2022-11-12T11:51:12.503Z,38.86
2022-11-12T11:53:00.636Z,39.72
2022-11-12T11:54:40.352Z,39.21
2022-11-12T11:56:28.638Z,38.43
2022-11-12T11:58:27.461Z,38.90
2022-11-12T12:00:01.572Z,38.82
2022-11-12T12:01:45.149Z,40.07
2022-11-12T12:03:31.727Z,39.23
2022-11-12T12:05:26.895Z,39.94
2022-11-12T12:07:16.108Z,37.61
2022-11-12T12:09:02.261Z,36.94
2022-11-12T12:11:01.657Z,36.70
2022-11-12T12:12:29.698Z,36.98
2022-11-12T12:14:10.164Z,36.26
2022-11-12T12:16:06.223Z,35.36
2022-11-12T12:17:45.964Z,35.59
2022-11-12T12:19:23.254Z,35.31
2022-11-12T12:20:56.153Z,34.90
2022-11-12T12:22:26.815Z,34.18
2022-11-12T12:24:02.409Z,34.23
2022-11-12T12:25:33.118Z,34.47
2022-11-12T12:26:59.689Z,34.54
2022-11-12T12:28:34.133Z,33.69
2022-11-12T12:30:07.114Z,34.42
2022-11-12T12:31:38.417Z,34.47
2022-11-12T12:33:33.265Z,35.08
2022-11-12T12:35:31.110Z,35.28
2022-11-12T12:37:02.104Z,36.08
2022-11-12T12:38:44.680Z,35.50
2022-11-12T12:40:25.056Z,36.41
2022-11-12T12:41:58.748Z,36.38
2022-11-12T12:43:31.849Z,34.67
2022-11-12T12:45:04.984Z,35.04
2022-11-12T12:46:31.107Z,34.28
2022-11-12T12:47:54.296Z,34.09
2022-11-12T12:49:32.665Z,33.64
2022-11-12T12:50:54.623Z,33.29
2022-11-12T12:52:16.854Z,33.90
2022-11-12T12:53:40.793Z,34.43
2022-11-12T12:55:02.862Z,34.33
2022-11-12T12:56:30.728Z,34.49
2022-11-12T12:57:59.728Z,33.23
2022-11-12T12:59:24.857Z,33.86
2022-11-12T13:00:52.442Z,33.97
2022-11-12T13:02:24.190Z,33.53
2022-11-12T13:03:59.764Z,34.69
2022-11-12T13:05:41.870Z,35.31
2022-11-12T13:07:09.902Z,35.35
2022-11-12T13:08:37.154Z,36.04
2022-11-12T13:10:36.734Z,35.78
2022-11-12T13:12:07.489Z,35.97
2022-11-12T13:13:35.262Z,35.62
2022-11-12T13:15:15.789Z,35.62
2022-11-12T13:16:52.907Z,35.99
2022-11-12T13:18:44.203Z,35.34
2022-11-12T13:20:08.362Z,36.06
2022-11-12T13:21:30.664Z,36.27
2022-11-12T13:22:53.004Z,36.76
2022-11-12T13:24:16.377Z,37.66
2022-11-12T13:25:40.810Z,37.84
2022-11-12T13:27:03.057Z,37.62
2022-11-12T13:28:25.324Z,37.45
2022-11-12T13:29:49.650Z,37.76
2022-11-12T13:31:29.596Z,37.79
2022-11-12T13:32:52.784Z,38.26
2022-11-12T13:34:21.964Z,38.07
2022-11-12T13:35:43.800Z,37.81
2022-11-12T13:37:06.781Z,37.58
2022-11-12T13:38:28.899Z,37.32
2022-11-12T13:39:51.914Z,37.05
2022-11-12T13:41:43.861Z,36.93
2022-11-12T13:43:24.696Z,36.66
2022-11-12T13:44:52.098Z,35.95
2022-11-12T13:46:33.908Z,35.99
2022-11-12T13:47:58.010Z,36.43
2022-11-12T13:49:20.558Z,36.78
2022-11-12T13:50:48.630Z,36.77
2022-11-12T13:52:14.720Z,37.12
2022-11-12T13:53:36.391Z,37.33
2022-11-12T13:55:16.008Z,37.73
2022-11-12T13:56:37.885Z,37.95
2022-11-12T13:58:00.179Z,37.66
2022-11-12T13:59:25.522Z,37.29
2022-11-12T14:00:56.743Z,37.53
2022-11-12T14:02:25.663Z,38.14
2022-11-12T14:03:52.000Z,38.42
2022-11-12T14:05:18.606Z,38.98
2022-11-12T14:07:02.511Z,39.44
2022-11-12T14:08:31.510Z,40.11
2022-11-12T14:10:23.095Z,40.46
2022-11-12T14:11:46.353Z,40.73
2022-11-12T14:13:30.320Z,40.74
2022-11-12T14:15:14.060Z,40.54
2022-11-12T14:17:22.672Z,40.96
2022-11-12T14:19:02.737Z,41.31
2022-11-12T14:20:40.097Z,41.65
2022-11-12T14:22:14.024Z,42.00
2022-11-12T14:23:38.411Z,42.26
2022-11-12T14:25:02.637Z,42.46
2022-11-12T14:26:43.067Z,42.65
2022-11-12T14:28:05.490Z,43.44
2022-11-12T14:29:32.986Z,43.86
2022-11-12T14:30:58.087Z,44.25
2022-11-12T14:32:20.392Z,44.54
2022-11-12T14:33:42.231Z,44.66
2022-11-12T14:35:21.360Z,44.72
2022-11-12T14:36:44.410Z,45.11
2022-11-12T14:38:11.755Z,45.37
2022-11-12T14:39:34.975Z,45.51
2022-11-12T14:41:02.160Z,45.57
2022-11-12T14:42:24.570Z,45.58
2022-11-12T14:43:55.008Z,45.55
2022-11-12T14:45:25.023Z,45.75
2022-11-12T14:46:50.277Z,45.98
2022-11-12T14:48:14.711Z,46.05
2022-11-12T14:49:43.587Z,46.39
2022-11-12T14:51:12.056Z,46.54
2022-11-12T14:52:41.756Z,46.78
2022-11-12T14:54:07.775Z,46.98
2022-11-12T14:55:34.652Z,47.19
2022-11-12T14:56:58.957Z,47.50
2022-11-12T14:58:23.203Z,47.54
2022-11-12T14:59:45.245Z,47.53
2022-11-12T15:02:14.457Z,47.91
2022-11-12T15:03:19.421Z,48.20
2022-11-12T15:04:54.722Z,48.49
2022-11-12T15:06:27.172Z,48.62
2022-11-12T15:07:56.280Z,48.59
2022-11-12T15:09:41.214Z,48.75
2022-11-12T15:11:20.415Z,48.97
2022-11-12T15:12:44.585Z,49.15
2022-11-12T15:14:06.658Z,49.10
2022-11-12T15:15:29.068Z,49.35
2022-11-12T15:16:52.708Z,49.63
2022-11-12T15:18:18.939Z,49.97
2022-11-12T15:19:44.343Z,50.10
2022-11-12T15:21:12.310Z,50.71
2022-11-12T15:22:35.443Z,50.86
2022-11-12T15:24:03.682Z,50.81
2022-11-12T15:25:29.131Z,50.91
2022-11-12T15:26:51.240Z,51.13
2022-11-12T15:28:25.472Z,51.30
2022-11-12T15:29:47.347Z,51.36
2022-11-12T15:31:17.461Z,51.52
2022-11-12T15:32:39.159Z,51.67
2022-11-12T15:34:20.225Z,52.16
2022-11-12T15:35:46.531Z,52.19
2022-11-12T15:37:23.757Z,52.33
2022-11-12T15:38:54.180Z,52.58
2022-11-12T15:40:19.915Z,52.92
2022-11-12T15:41:42.053Z,53.28
2022-11-12T15:43:15.373Z,53.23
2022-11-12T15:44:37.652Z,53.33
2022-11-12T15:46:00.326Z,53.45
2022-11-12T15:47:22.330Z,54.00
2022-11-12T15:48:44.973Z,54.21
2022-11-12T15:50:25.316Z,54.17
2022-11-12T15:51:47.200Z,54.31
2022-11-12T15:53:09.821Z,54.56
2022-11-12T15:54:32.276Z,54.51
2022-11-12T15:55:57.235Z,54.71
2022-11-12T15:57:22.804Z,54.68
2022-11-12T15:58:45.378Z,54.88
2022-11-12T16:00:16.265Z,54.87
2022-11-12T16:03:21.823Z,55.31
2022-11-12T16:04:44.473Z,55.73
2022-11-12T16:06:09.378Z,55.69
2022-11-12T16:07:31.415Z,55.69
2022-11-12T16:08:54.125Z,55.70
2022-11-12T16:10:19.642Z,55.88
2022-11-12T16:11:42.254Z,56.09
2022-11-12T16:13:07.841Z,56.21
2022-11-12T16:14:30.899Z,56.54
2022-11-12T16:15:54.302Z,56.74
2022-11-12T16:17:18.606Z,56.88
2022-11-12T16:18:43.408Z,56.99
2022-11-12T16:20:24.087Z,57.32
2022-11-12T16:21:46.663Z,57.42
2022-11-12T16:23:09.004Z,57.73
2022-11-12T16:24:30.884Z,58.27
2022-11-12T16:25:56.588Z,58.34
2022-11-12T16:27:20.613Z,58.53
2022-11-12T16:28:44.144Z,58.98
2022-11-12T16:30:17.530Z,59.22
2022-11-12T16:31:41.773Z,59.26
2022-11-12T16:33:03.750Z,59.55
2022-11-12T16:34:25.806Z,59.77
2022-11-12T16:35:48.584Z,59.88
2022-11-12T16:37:13.240Z,59.93
2022-11-12T16:38:35.412Z,60.02
2022-11-12T16:39:58.126Z,60.19
2022-11-12T16:41:20.481Z,60.33
2022-11-12T16:42:45.972Z,60.47
2022-11-12T16:44:08.247Z,60.74
2022-11-12T16:45:35.516Z,61.05
2022-11-12T16:46:58.145Z,60.82
2022-11-12T16:48:22.326Z,61.12
2022-11-12T16:49:44.666Z,61.35
2022-11-12T16:51:10.372Z,61.37
2022-11-12T16:52:32.545Z,61.64
2022-11-12T16:53:54.651Z,62.05
2022-11-12T16:55:20.103Z,61.89
2022-11-12T16:56:42.257Z,61.81
2022-11-12T16:58:04.466Z,61.98
2022-11-12T16:59:29.258Z,62.08
2022-11-12T17:00:57.353Z,61.89
2022-11-12T17:02:21.603Z,61.86
2022-11-12T17:03:43.546Z,61.95
2022-11-12T17:05:08.693Z,62.03
2022-11-12T17:06:39.800Z,62.04
2022-11-12T17:08:02.096Z,62.36
2022-11-12T17:09:24.338Z,62.33
2022-11-12T17:10:46.470Z,62.91
2022-11-12T17:12:09.591Z,63.09
2022-11-12T17:13:31.503Z,63.23
2022-11-12T17:14:53.686Z,63.37
2022-11-12T17:16:16.178Z,63.34
2022-11-12T17:17:38.049Z,63.05
2022-11-12T17:19:02.489Z,63.31
2022-11-12T17:20:24.575Z,63.17
2022-11-12T17:21:46.904Z,63.23
2022-11-12T17:23:09.175Z,63.39
2022-11-12T17:24:31.057Z,63.18
2022-11-12T17:26:05.206Z,63.28
2022-11-12T17:27:27.749Z,63.23
2022-11-12T17:28:55.562Z,63.36
2022-11-12T17:30:21.032Z,63.55
2022-11-12T17:31:42.771Z,63.58
2022-11-12T17:33:05.285Z,63.82
2022-11-12T17:34:27.137Z,64.32
2022-11-12T17:35:48.964Z,64.73
2022-11-12T17:37:15.425Z,65.23
2022-11-12T17:38:37.955Z,65.41
2022-11-12T17:40:00.015Z,65.01
2022-11-12T17:41:22.626Z,64.94
2022-11-12T17:42:47.512Z,64.70
2022-11-12T17:44:16.523Z,64.67
2022-11-12T17:45:38.305Z,64.62
2022-11-12T17:47:02.129Z,64.62
2022-11-12T17:48:24.996Z,64.90
2022-11-12T17:49:46.805Z,64.91
2022-11-12T17:51:14.766Z,64.56
2022-11-12T17:52:36.797Z,64.88
2022-11-12T17:53:58.700Z,64.83
2022-11-12T17:55:20.570Z,64.94
2022-11-12T17:56:42.482Z,64.76
2022-11-12T17:58:04.749Z,64.77
2022-11-12T17:59:27.902Z,64.99
2022-11-12T18:00:51.873Z,65.67
2022-11-12T18:02:14.450Z,65.07
2022-11-12T18:03:40.856Z,65.40
2022-11-12T18:05:03.346Z,65.52
2022-11-12T18:06:28.348Z,65.13
2022-11-12T18:07:50.462Z,65.26
2022-11-12T18:09:17.449Z,64.99
2022-11-12T18:10:40.188Z,65.14
2022-11-12T18:12:02.506Z,65.42
2022-11-12T18:13:26.955Z,65.62
2022-11-12T18:14:49.769Z,65.38
2022-11-12T18:16:26.846Z,65.74
2022-11-12T18:17:49.064Z,65.86
2022-11-12T18:19:12.691Z,65.92
2022-11-12T18:20:35.211Z,65.86
2022-11-12T18:21:57.374Z,65.74
2022-11-12T18:23:20.277Z,66.03
2022-11-12T18:24:42.551Z,65.74
2022-11-12T18:26:04.495Z,65.98
2022-11-12T18:27:26.355Z,66.03
2022-11-12T18:28:57.662Z,66.18
2022-11-12T18:30:20.152Z,66.04
2022-11-12T18:31:42.122Z,66.19
2022-11-12T18:33:05.142Z,66.19
2022-11-12T18:34:27.068Z,66.01
2022-11-12T18:35:49.292Z,66.05
2022-11-12T18:37:12.190Z,65.84